Time,TemperatureF,DewpointF,PressureIn,WindDirection,WindDirectionDegrees,WindSpeedMPH,WindSpeedGustMPH,Humidity,HourlyPrecipIn,Conditions,Clouds,dailyrainin,SoftwareType,DateUTC
2013-01-12 00:04:00,33.4,28.2,30.21,SSW,212,0.0,0.0,81,0.00,RA,,0.00,WeatherDisplay:10.37,2013-01-12 05:04:00,
2013-01-12 00:10:00,33.4,28.5,30.21,South,191,0.0,3.0,82,0.02,RA,,0.02,WeatherDisplay:10.37,2013-01-12 05:10:00,
2013-01-12 00:20:00,33.4,28.5,30.21,South,182,0.0,0.0,82,0.00,CLR,,0.02,WeatherDisplay:10.37,2013-01-12 05:20:00,
2013-01-12 00:24:00,33.5,28.6,30.21,South,175,0.0,7.0,82,0.00,CLR,,0.02,WeatherDisplay:10.37,2013-01-12 05:24:00,
2013-01-12 00:30:00,33.4,28.5,30.21,SSE,163,1.0,6.0,82,0.00,CLR,,0.02,WeatherDisplay:10.37,2013-01-12 05:30:00,
2013-01-12 00:40:00,33.7,28.8,30.20,South,177,0.0,1.0,82,0.00,CLR,,0.02,WeatherDisplay:10.37,2013-01-12 05:40:00,
2013-01-12 00:50:00,33.9,29.3,30.21,SE,133,0.0,2.0,83,0.00,CLR,,0.02,WeatherDisplay:10.37,2013-01-12 05:50:00,
2013-01-12 00:59:00,33.8,29.2,30.20,SSW,202,0.0,0.0,83,0.00,CLR,,0.02,WeatherDisplay:10.37,2013-01-12 05:59:00,
2013-01-12 01:04:00,34.0,29.4,30.20,SSW,204,0.0,0.0,83,0.00,CLR,,0.02,WeatherDisplay:10.37,2013-01-12 06:04:00,
2013-01-12 01:10:00,34.0,29.4,30.20,SSW,202,0.0,0.0,83,0.00,CLR,,0.02,WeatherDisplay:10.37,2013-01-12 06:10:00,
2013-01-12 01:20:00,34.0,29.4,30.19,SSE,159,0.0,0.0,83,0.00,CLR,,0.02,WeatherDisplay:10.37,2013-01-12 06:20:00,
2013-01-12 01:30:00,33.9,29.3,30.18,ESE,120,0.0,0.0,83,0.00,CLR,,0.02,WeatherDisplay:10.37,2013-01-12 06:30:00,
2013-01-12 01:40:00,34.0,29.4,30.20,SSW,192,0.0,2.0,83,0.00,CLR,,0.02,WeatherDisplay:10.37,2013-01-12 06:40:00,
2013-01-12 01:50:00,34.0,29.4,30.20,SSW,193,0.0,0.0,83,0.00,CLR,,0.02,WeatherDisplay:10.37,2013-01-12 06:50:00,
2013-01-12 01:59:00,34.0,29.7,30.20,SSW,208,0.0,0.0,84,0.00,CLR,,0.02,WeatherDisplay:10.37,2013-01-12 06:59:00,
2013-01-12 02:04:00,34.2,29.8,30.20,SSW,206,0.0,0.0,84,0.00,CLR,,0.02,WeatherDisplay:10.37,2013-01-12 07:04:00,
2013-01-12 02:10:00,34.2,29.8,30.20,SSW,202,0.0,0.0,84,0.00,CLR,,0.02,WeatherDisplay:10.37,2013-01-12 07:10:00,
2013-01-12 02:20:00,34.2,29.8,30.20,SSW,202,0.0,0.0,84,0.00,CLR,,0.02,WeatherDisplay:10.37,2013-01-12 07:20:00,
2013-01-12 02:30:00,34.2,29.8,30.21,SSW,202,0.0,2.0,84,0.00,CLR,,0.02,WeatherDisplay:10.37,2013-01-12 07:30:00,
2013-01-12 02:40:00,34.2,29.8,30.19,SSW,202,0.0,0.0,84,0.00,CLR,,0.02,WeatherDisplay:10.37,2013-01-12 07:40:00,
2013-01-12 02:50:00,34.2,29.8,30.19,SSW,202,0.0,0.0,84,0.00,CLR,,0.02,WeatherDisplay:10.37,2013-01-12 07:50:00,
2013-01-12 02:59:00,34.2,29.8,30.18,SSW,202,0.0,0.0,84,0.00,CLR,,0.02,WeatherDisplay:10.37,2013-01-12 07:59:00,
2013-01-12 03:04:00,34.2,30.1,30.18,South,189,0.0,0.0,85,0.00,CLR,,0.02,WeatherDisplay:10.37,2013-01-12 08:04:00,
2013-01-12 03:10:00,34.2,30.2,30.19,South,180,0.0,0.0,85,0.00,CLR,,0.02,WeatherDisplay:10.37,2013-01-12 08:10:00,
2013-01-12 03:20:00,34.2,30.1,30.19,SSE,168,0.0,0.0,85,0.00,CLR,,0.02,WeatherDisplay:10.37,2013-01-12 08:20:00,
2013-01-12 03:30:00,34.2,30.1,30.18,SSE,158,0.0,0.0,85,0.00,CLR,,0.02,WeatherDisplay:10.37,2013-01-12 08:30:00,
2013-01-12 03:40:00,34.2,30.1,30.18,South,183,0.0,0.0,85,0.00,CLR,,0.02,WeatherDisplay:10.37,2013-01-12 08:40:00,
2013-01-12 03:50:00,34.3,30.2,30.18,SSE,151,0.0,2.0,85,0.00,CLR,,0.02,WeatherDisplay:10.37,2013-01-12 08:50:00,
2013-01-12 03:59:00,34.3,30.2,30.17,SSE,162,0.0,0.0,85,0.00,CLR,,0.02,WeatherDisplay:10.37,2013-01-12 08:59:00,
2013-01-12 04:04:00,34.2,30.2,30.17,SE,143,0.0,0.0,85,0.00,CLR,,0.02,WeatherDisplay:10.37,2013-01-12 09:04:00,
2013-01-12 04:10:00,34.2,30.1,30.18,ESE,119,0.0,0.0,85,0.00,CLR,,0.02,WeatherDisplay:10.37,2013-01-12 09:10:00,
2013-01-12 04:20:00,34.3,30.3,30.18,ESE,112,0.0,0.0,85,0.00,CLR,,0.02,WeatherDisplay:10.37,2013-01-12 09:20:00,
2013-01-12 04:30:00,34.3,30.2,30.18,SE,124,0.0,0.0,85,0.00,CLR,,0.02,WeatherDisplay:10.37,2013-01-12 09:30:00,
2013-01-12 04:40:00,34.2,30.1,30.18,SE,135,0.0,0.0,85,0.00,CLR,,0.02,WeatherDisplay:10.37,2013-01-12 09:40:00,
2013-01-12 04:50:00,34.2,30.1,30.19,SE,135,0.0,0.0,85,0.00,CLR,,0.02,WeatherDisplay:10.37,2013-01-12 09:50:00,
2013-01-12 04:59:00,34.0,29.9,30.19,SE,135,0.0,0.0,85,0.00,CLR,,0.02,WeatherDisplay:10.37,2013-01-12 09:59:00,
2013-01-12 05:04:00,34.0,29.9,30.19,SE,135,0.0,0.0,85,0.00,CLR,,0.02,WeatherDisplay:10.37,2013-01-12 10:04:00,
2013-01-12 05:10:00,33.8,29.8,30.18,SE,135,0.0,0.0,85,0.00,CLR,,0.02,WeatherDisplay:10.37,2013-01-12 10:10:00,
2013-01-12 05:20:00,33.4,29.4,30.17,SE,135,0.0,0.0,85,0.00,CLR,,0.02,WeatherDisplay:10.37,2013-01-12 10:20:00,
2013-01-12 05:30:00,33.4,29.4,30.17,SE,135,0.0,0.0,85,0.00,CLR,,0.02,WeatherDisplay:10.37,2013-01-12 10:30:00,
2013-01-12 05:40:00,33.4,29.4,30.16,SE,135,0.0,0.0,85,0.00,CLR,,0.02,WeatherDisplay:10.37,2013-01-12 10:40:00,
2013-01-12 05:50:00,33.3,29.2,30.16,SE,135,0.0,0.0,85,0.00,CLR,,0.02,WeatherDisplay:10.37,2013-01-12 10:50:00,
2013-01-12 05:59:00,33.3,29.2,30.17,SE,135,0.0,0.0,85,0.00,CLR,,0.02,WeatherDisplay:10.37,2013-01-12 10:59:00,
2013-01-12 06:04:00,33.3,29.2,30.17,SE,135,0.0,0.0,85,0.00,CLR,,0.02,WeatherDisplay:10.37,2013-01-12 11:04:00,
2013-01-12 06:10:00,33.3,29.2,30.17,SE,135,0.0,0.0,85,0.00,CLR,,0.02,WeatherDisplay:10.37,2013-01-12 11:10:00,
2013-01-12 06:20:00,33.2,29.2,30.18,SE,135,0.0,0.0,85,0.00,CLR,,0.02,WeatherDisplay:10.37,2013-01-12 11:20:00,
2013-01-12 06:30:00,33.1,29.1,30.19,SE,135,0.0,0.0,85,0.00,CLR,,0.02,WeatherDisplay:10.37,2013-01-12 11:30:00,
2013-01-12 06:40:00,33.3,29.2,30.18,SE,135,0.0,0.0,85,0.00,CLR,,0.02,WeatherDisplay:10.37,2013-01-12 11:40:00,
2013-01-12 06:50:00,33.2,29.2,30.19,SE,135,0.0,0.0,85,0.00,CLR,,0.02,WeatherDisplay:10.37,2013-01-12 11:50:00,
2013-01-12 06:59:00,33.3,29.2,30.20,SE,135,0.0,0.0,85,0.00,CLR,,0.02,WeatherDisplay:10.37,2013-01-12 11:59:00,
2013-01-12 07:04:00,33.3,29.2,30.20,SE,135,0.0,0.0,85,0.00,CLR,,0.02,WeatherDisplay:10.37,2013-01-12 12:04:00,
2013-01-12 07:10:00,33.3,29.2,30.20,SE,135,0.0,0.0,85,0.00,CLR,,0.02,WeatherDisplay:10.37,2013-01-12 12:10:00,
2013-01-12 07:20:00,33.3,29.3,30.19,SE,135,0.0,0.0,85,0.00,CLR,,0.02,WeatherDisplay:10.37,2013-01-12 12:20:00,
2013-01-12 07:30:00,33.3,29.6,30.20,SE,135,0.0,0.0,86,0.00,CLR,,0.02,WeatherDisplay:10.37,2013-01-12 12:30:00,
2013-01-12 07:40:00,33.3,29.5,30.20,SE,135,0.0,0.0,86,0.00,CLR,,0.02,WeatherDisplay:10.37,2013-01-12 12:40:00,
2013-01-12 07:50:00,33.4,29.7,30.21,SE,135,0.0,0.0,86,0.00,CLR,,0.02,WeatherDisplay:10.37,2013-01-12 12:50:00,
2013-01-12 07:59:00,33.4,29.7,30.21,SE,135,0.0,0.0,86,0.00,CLR,,0.02,WeatherDisplay:10.37,2013-01-12 12:59:00,
2013-01-12 08:04:00,33.4,29.7,30.21,SE,135,0.0,0.0,86,0.00,CLR,,0.02,WeatherDisplay:10.37,2013-01-12 13:04:00,
2013-01-12 08:10:00,33.6,29.9,30.21,SE,135,0.0,0.0,86,0.00,CLR,,0.02,WeatherDisplay:10.37,2013-01-12 13:10:00,
2013-01-12 08:20:00,34.0,30.2,30.21,SE,135,0.0,0.0,86,0.00,CLR,,0.02,WeatherDisplay:10.37,2013-01-12 13:20:00,
2013-01-12 08:30:00,34.2,30.4,30.21,SE,135,0.0,0.0,86,0.00,CLR,,0.02,WeatherDisplay:10.37,2013-01-12 13:30:00,
2013-01-12 08:40:00,34.5,31.0,30.21,SE,135,0.0,0.0,87,0.00,CLR,,0.02,WeatherDisplay:10.37,2013-01-12 13:40:00,
2013-01-12 08:50:00,35.2,31.8,30.20,SE,135,0.0,0.0,87,0.00,CLR,,0.02,WeatherDisplay:10.37,2013-01-12 13:50:00,
2013-01-12 09:00:00,35.8,32.6,30.21,SE,135,0.0,0.0,88,0.00,CLR,,0.02,WeatherDisplay:10.37,2013-01-12 14:00:00,
2013-01-12 09:10:00,35.8,32.6,30.21,SE,135,0.0,0.0,88,0.00,CLR,,0.02,WeatherDisplay:10.37,2013-01-12 14:10:00,
2013-01-12 09:20:00,35.8,32.6,30.21,SE,135,0.0,0.0,88,0.00,CLR,,0.02,WeatherDisplay:10.37,2013-01-12 14:20:00,
2013-01-12 09:30:00,36.0,32.8,30.20,SE,135,0.0,0.0,88,0.00,CLR,,0.02,WeatherDisplay:10.37,2013-01-12 14:30:00,
2013-01-12 09:40:00,36.1,32.9,30.22,SE,135,0.0,0.0,88,0.00,CLR,,0.02,WeatherDisplay:10.37,2013-01-12 14:40:00,
2013-01-12 09:50:00,36.4,33.2,30.21,SE,135,0.0,0.0,88,0.00,CLR,,0.02,WeatherDisplay:10.37,2013-01-12 14:50:00,
2013-01-12 09:59:00,36.6,33.7,30.21,SE,135,0.0,0.0,89,0.00,CLR,,0.02,WeatherDisplay:10.37,2013-01-12 14:59:00,
2013-01-12 10:04:00,36.6,33.7,30.20,SE,135,0.0,0.0,89,0.00,CLR,,0.02,WeatherDisplay:10.37,2013-01-12 15:04:00,
2013-01-12 10:10:00,36.9,33.9,30.20,SE,135,0.0,0.0,89,0.00,CLR,,0.02,WeatherDisplay:10.37,2013-01-12 15:10:00,
2013-01-12 10:20:00,37.0,34.1,30.20,SE,135,0.0,0.0,89,0.00,CLR,,0.02,WeatherDisplay:10.37,2013-01-12 15:20:00,
2013-01-12 10:30:00,37.7,34.8,30.20,SE,135,0.0,0.0,89,0.00,CLR,,0.02,WeatherDisplay:10.37,2013-01-12 15:30:00,
2013-01-12 10:40:00,38.1,35.2,30.19,SE,135,0.0,0.0,89,0.00,CLR,,0.02,WeatherDisplay:10.37,2013-01-12 15:40:00,
2013-01-12 10:50:00,38.3,35.3,30.20,SE,135,0.0,0.0,89,0.00,CLR,,0.02,WeatherDisplay:10.37,2013-01-12 15:50:00,
2013-01-12 10:59:00,38.7,35.8,30.19,SE,135,0.0,0.0,89,0.00,CLR,,0.02,WeatherDisplay:10.37,2013-01-12 15:59:00,
2013-01-12 11:04:00,39.0,36.0,30.19,SE,135,0.0,0.0,89,0.00,CLR,,0.02,WeatherDisplay:10.37,2013-01-12 16:04:00,
2013-01-12 11:10:00,39.2,36.2,30.19,SE,135,0.0,0.0,89,0.00,CLR,,0.02,WeatherDisplay:10.37,2013-01-12 16:10:00,
2013-01-12 11:20:00,39.6,36.7,30.18,SE,135,0.0,0.0,89,0.00,CLR,,0.02,WeatherDisplay:10.37,2013-01-12 16:20:00,
2013-01-12 11:30:00,40.5,37.5,30.17,SE,135,0.0,0.0,89,0.00,CLR,,0.02,WeatherDisplay:10.37,2013-01-12 16:30:00,
2013-01-12 11:40:00,41.3,38.0,30.17,SE,135,0.0,0.0,88,0.00,CLR,,0.02,WeatherDisplay:10.37,2013-01-12 16:40:00,
2013-01-12 11:50:00,42.0,38.4,30.16,SE,135,0.0,0.0,87,0.00,CLR,,0.02,WeatherDisplay:10.37,2013-01-12 16:50:00,
2013-01-12 11:59:00,42.8,38.9,30.16,SE,135,0.0,0.0,86,0.00,CLR,,0.02,WeatherDisplay:10.37,2013-01-12 16:59:00,
2013-01-12 12:04:00,43.1,39.2,30.15,SE,139,0.0,0.0,86,0.00,CLR,,0.02,WeatherDisplay:10.37,2013-01-12 17:04:00,
2013-01-12 12:10:00,43.2,39.3,30.15,SSE,164,0.0,0.0,86,0.00,CLR,,0.02,WeatherDisplay:10.37,2013-01-12 17:10:00,
2013-01-12 12:20:00,43.5,39.3,30.15,South,180,0.0,0.0,85,0.00,CLR,,0.02,WeatherDisplay:10.37,2013-01-12 17:20:00,
2013-01-12 12:30:00,43.6,38.8,30.16,South,180,0.0,0.0,83,0.00,CLR,,0.02,WeatherDisplay:10.37,2013-01-12 17:30:00,
2013-01-12 12:40:00,43.5,38.4,30.16,South,180,0.0,0.0,82,0.00,CLR,,0.02,WeatherDisplay:10.37,2013-01-12 17:40:00,
2013-01-12 12:50:00,43.9,38.5,30.16,South,180,0.0,0.0,81,0.00,CLR,,0.02,WeatherDisplay:10.37,2013-01-12 17:50:00,
2013-01-12 12:59:00,44.7,39.2,30.16,SSW,202,0.0,0.0,81,0.00,CLR,,0.02,WeatherDisplay:10.37,2013-01-12 17:59:00,
2013-01-12 13:04:00,44.8,39.3,30.17,SW,225,0.0,0.0,81,0.00,CLR,,0.02,WeatherDisplay:10.37,2013-01-12 18:04:00,
2013-01-12 13:10:00,44.8,39.0,30.17,SW,225,0.0,0.0,80,0.00,CLR,,0.02,WeatherDisplay:10.37,2013-01-12 18:10:00,
2013-01-12 13:20:00,44.7,38.9,30.17,SW,225,0.0,0.0,80,0.00,CLR,,0.02,WeatherDisplay:10.37,2013-01-12 18:20:00,
2013-01-12 13:30:00,44.4,38.3,30.18,SW,224,0.0,0.0,79,0.00,CLR,,0.02,WeatherDisplay:10.37,2013-01-12 18:30:00,
2013-01-12 13:40:00,44.2,38.1,30.17,South,189,0.0,0.0,79,0.00,CLR,,0.02,WeatherDisplay:10.37,2013-01-12 18:40:00,
2013-01-12 13:50:00,44.0,37.9,30.17,South,180,0.0,0.0,79,0.00,CLR,,0.02,WeatherDisplay:10.37,2013-01-12 18:50:00,
2013-01-12 13:59:00,43.7,37.6,30.17,South,180,0.0,0.0,79,0.00,CLR,,0.02,WeatherDisplay:10.37,2013-01-12 18:59:00,
2013-01-12 14:04:00,43.8,37.7,30.17,South,180,0.0,0.0,79,0.00,CLR,,0.02,WeatherDisplay:10.37,2013-01-12 19:04:00,
2013-01-12 14:10:00,43.9,37.8,30.18,South,183,0.0,0.0,79,0.00,CLR,,0.02,WeatherDisplay:10.37,2013-01-12 19:10:00,
2013-01-12 14:20:00,43.7,37.6,30.17,South,178,0.0,0.0,79,0.00,CLR,,0.02,WeatherDisplay:10.37,2013-01-12 19:20:00,
2013-01-12 14:30:00,44.6,38.8,30.17,South,180,0.0,0.0,80,0.00,CLR,,0.02,WeatherDisplay:10.37,2013-01-12 19:30:00,
2013-01-12 14:40:00,44.2,38.1,30.17,SSW,206,0.0,0.0,79,0.00,CLR,,0.02,WeatherDisplay:10.37,2013-01-12 19:40:00,
2013-01-12 14:50:00,44.1,38.0,30.17,SW,225,0.0,0.0,79,0.00,CLR,,0.02,WeatherDisplay:10.37,2013-01-12 19:50:00,
2013-01-12 14:59:00,43.5,37.8,30.18,SW,225,0.0,0.0,80,0.00,CLR,,0.02,WeatherDisplay:10.37,2013-01-12 19:59:00,
2013-01-12 15:04:00,43.3,37.5,30.18,SW,225,0.0,0.0,80,0.00,CLR,,0.02,WeatherDisplay:10.37,2013-01-12 20:04:00,
2013-01-12 15:10:00,43.0,37.2,30.18,SW,225,0.0,0.0,80,0.00,CLR,,0.02,WeatherDisplay:10.37,2013-01-12 20:10:00,
2013-01-12 15:20:00,42.4,36.7,30.18,SW,225,0.0,0.0,80,0.00,CLR,,0.02,WeatherDisplay:10.37,2013-01-12 20:20:00,
2013-01-12 15:30:00,42.2,36.4,30.18,SW,225,0.0,0.0,80,0.00,CLR,,0.02,WeatherDisplay:10.37,2013-01-12 20:30:00,
2013-01-12 15:40:00,41.5,36.1,30.18,SW,225,0.0,0.0,81,0.00,CLR,,0.02,WeatherDisplay:10.37,2013-01-12 20:40:00,
2013-01-12 15:50:00,41.2,35.8,30.18,SW,225,0.0,0.0,81,0.00,CLR,,0.02,WeatherDisplay:10.37,2013-01-12 20:50:00,
2013-01-12 15:59:00,41.0,35.9,30.18,SW,215,0.0,0.0,82,0.00,CLR,,0.02,WeatherDisplay:10.37,2013-01-12 20:59:00,
2013-01-12 16:10:00,40.6,35.6,30.17,SSW,213,0.0,0.0,82,0.00,CLR,,0.02,WeatherDisplay:10.37,2013-01-12 21:10:00,
2013-01-12 16:20:00,40.5,35.4,30.17,SSW,208,0.0,0.0,82,0.00,CLR,,0.02,WeatherDisplay:10.37,2013-01-12 21:20:00,
2013-01-12 16:30:00,40.1,35.0,30.17,SSW,202,0.0,0.0,82,0.00,CLR,,0.02,WeatherDisplay:10.37,2013-01-12 21:30:00,
2013-01-12 16:40:00,39.8,34.7,30.18,SSW,202,0.0,0.0,82,0.00,CLR,,0.02,WeatherDisplay:10.37,2013-01-12 21:40:00,
2013-01-12 16:50:00,39.6,34.5,30.18,SSW,202,0.0,0.0,82,0.00,CLR,,0.02,WeatherDisplay:10.37,2013-01-12 21:50:00,
2013-01-12 16:59:00,39.2,34.2,30.18,SSW,204,0.0,0.0,82,0.00,CLR,,0.02,WeatherDisplay:10.37,2013-01-12 21:59:00,
2013-01-12 17:04:00,39.1,34.1,30.18,SSW,213,0.0,0.0,82,0.00,CLR,,0.02,WeatherDisplay:10.37,2013-01-12 22:04:00,
2013-01-12 17:10:00,39.0,33.9,30.19,SW,223,0.0,0.0,82,0.00,CLR,,0.02,WeatherDisplay:10.37,2013-01-12 22:10:00,
2013-01-12 17:20:00,38.8,33.8,30.19,SW,225,0.0,0.0,82,0.00,CLR,,0.02,WeatherDisplay:10.37,2013-01-12 22:20:00,
2013-01-12 17:30:00,38.7,33.6,30.19,SW,225,0.0,0.0,82,0.00,CLR,,0.02,WeatherDisplay:10.37,2013-01-12 22:30:00,
2013-01-12 17:40:00,38.3,33.3,30.19,SW,225,0.0,0.0,82,0.00,CLR,,0.02,WeatherDisplay:10.37,2013-01-12 22:40:00,
2013-01-12 17:50:00,38.1,33.4,30.19,SW,216,0.0,0.0,83,0.00,CLR,,0.02,WeatherDisplay:10.37,2013-01-12 22:50:00,
2013-01-12 17:59:00,38.1,33.4,30.18,SSW,202,0.0,0.0,83,0.00,CLR,,0.02,WeatherDisplay:10.37,2013-01-12 22:59:00,
2013-01-12 18:04:00,38.1,33.4,30.18,SSW,202,0.0,0.0,83,0.00,CLR,,0.02,WeatherDisplay:10.37,2013-01-12 23:04:00,
2013-01-12 18:10:00,38.1,33.4,30.17,SSW,202,0.0,0.0,83,0.00,CLR,,0.02,WeatherDisplay:10.37,2013-01-12 23:10:00,
2013-01-12 18:20:00,37.9,33.2,30.17,SSW,202,0.0,0.0,83,0.00,CLR,,0.02,WeatherDisplay:10.37,2013-01-12 23:20:00,
2013-01-12 18:30:00,37.9,33.2,30.17,SSW,202,0.0,0.0,83,0.00,CLR,,0.02,WeatherDisplay:10.37,2013-01-12 23:30:00,
2013-01-12 18:40:00,37.8,33.1,30.16,SSW,202,0.0,0.0,83,0.00,CLR,,0.02,WeatherDisplay:10.37,2013-01-12 23:40:00,
2013-01-12 18:50:00,37.9,33.5,30.16,SSW,202,0.0,0.0,84,0.00,CLR,,0.02,WeatherDisplay:10.37,2013-01-12 23:50:00,
2013-01-12 18:59:00,37.9,33.5,30.16,SSW,202,0.0,0.0,84,0.00,CLR,,0.02,WeatherDisplay:10.37,2013-01-12 23:59:00,
2013-01-12 19:04:00,37.9,33.5,30.16,SSW,200,0.0,0.0,84,0.00,CLR,,0.02,WeatherDisplay:10.37,2013-01-13 00:04:00,
2013-01-12 19:10:00,37.9,33.5,30.16,South,188,0.0,0.0,84,0.00,CLR,,0.02,WeatherDisplay:10.37,2013-01-13 00:10:00,
2013-01-12 19:20:00,38.1,33.7,30.16,South,180,0.0,0.0,84,0.00,CLR,,0.02,WeatherDisplay:10.37,2013-01-13 00:20:00,
2013-01-12 19:30:00,38.1,34.0,30.17,South,180,0.0,0.0,85,0.00,CLR,,0.02,WeatherDisplay:10.37,2013-01-13 00:30:00,
2013-01-12 19:40:00,38.1,34.0,30.16,South,188,0.0,0.0,85,0.00,CLR,,0.02,WeatherDisplay:10.37,2013-01-13 00:40:00,
2013-01-12 19:50:00,38.1,34.0,30.16,SW,215,0.0,0.0,85,0.00,CLR,,0.02,WeatherDisplay:10.37,2013-01-13 00:50:00,
2013-01-12 19:59:00,38.3,34.1,30.17,SSW,209,0.0,0.0,85,0.00,CLR,,0.02,WeatherDisplay:10.37,2013-01-13 00:59:00,
2013-01-12 20:04:00,38.2,34.1,30.17,SSW,206,0.0,3.0,85,0.00,CLR,,0.02,WeatherDisplay:10.37,2013-01-13 01:04:00,
2013-01-12 20:10:00,38.3,34.5,30.17,SSW,211,0.0,1.0,86,0.00,CLR,,0.02,WeatherDisplay:10.37,2013-01-13 01:10:00,
2013-01-12 20:20:00,38.3,34.5,30.17,SW,217,0.0,0.0,86,0.00,CLR,,0.02,WeatherDisplay:10.37,2013-01-13 01:20:00,
2013-01-12 20:30:00,38.5,34.7,30.17,SW,225,0.0,3.0,86,0.00,CLR,,0.02,WeatherDisplay:10.37,2013-01-13 01:30:00,
2013-01-12 20:40:00,38.3,34.5,30.17,SW,236,0.0,3.0,86,0.00,CLR,,0.02,WeatherDisplay:10.37,2013-01-13 01:40:00,
2013-01-12 20:50:00,38.3,34.8,30.16,SSW,208,1.0,3.0,87,0.00,CLR,,0.02,WeatherDisplay:10.37,2013-01-13 01:50:00,
2013-01-12 20:59:00,38.3,34.8,30.16,SW,229,0.0,2.0,87,0.00,CLR,,0.02,WeatherDisplay:10.37,2013-01-13 01:59:00,
2013-01-12 21:04:00,38.3,34.8,30.16,SW,225,0.0,4.0,87,0.00,CLR,,0.02,WeatherDisplay:10.37,2013-01-13 02:04:00,
2013-01-12 21:10:00,38.3,34.8,30.17,WSW,239,0.0,0.0,87,0.00,CLR,,0.02,WeatherDisplay:10.37,2013-01-13 02:10:00,
2013-01-12 21:20:00,38.3,34.8,30.17,West,260,0.0,0.0,87,0.00,CLR,,0.02,WeatherDisplay:10.37,2013-01-13 02:20:00,
2013-01-12 21:30:00,38.3,35.1,30.16,SW,232,0.0,5.0,88,0.00,CLR,,0.02,WeatherDisplay:10.37,2013-01-13 02:30:00,
2013-01-12 21:40:00,38.2,35.0,30.16,SW,221,0.0,2.0,88,0.00,CLR,,0.02,WeatherDisplay:10.37,2013-01-13 02:40:00,
2013-01-12 21:50:00,38.1,34.9,30.16,SW,225,0.0,0.0,88,0.00,CLR,,0.02,WeatherDisplay:10.37,2013-01-13 02:50:00,
2013-01-12 21:59:00,38.1,34.9,30.16,SW,232,0.0,3.0,88,0.00,CLR,,0.02,WeatherDisplay:10.37,2013-01-13 02:59:00,
2013-01-12 22:04:00,38.1,34.9,30.16,WSW,244,0.0,0.0,88,0.00,CLR,,0.02,WeatherDisplay:10.37,2013-01-13 03:04:00,
2013-01-12 22:10:00,38.2,34.9,30.16,WSW,250,0.0,2.0,88,0.00,CLR,,0.02,WeatherDisplay:10.37,2013-01-13 03:10:00,
2013-01-12 22:20:00,38.3,35.3,30.15,SW,227,0.0,6.0,89,0.00,CLR,,0.02,WeatherDisplay:10.37,2013-01-13 03:20:00,
2013-01-12 22:30:00,38.3,35.3,30.15,SW,228,0.0,0.0,89,0.00,CLR,,0.02,WeatherDisplay:10.37,2013-01-13 03:30:00,
2013-01-12 22:40:00,38.2,35.3,30.16,WSW,254,0.0,0.0,89,0.00,CLR,,0.02,WeatherDisplay:10.37,2013-01-13 03:40:00,
2013-01-12 22:50:00,38.1,35.2,30.16,WSW,247,0.0,0.0,89,0.00,CLR,,0.02,WeatherDisplay:10.37,2013-01-13 03:50:00,
2013-01-12 22:59:00,38.1,35.2,30.16,SW,216,0.0,0.0,89,0.00,CLR,,0.02,WeatherDisplay:10.37,2013-01-13 03:59:00,
2013-01-12 23:04:00,38.1,35.2,30.16,SW,231,0.0,4.0,89,0.00,CLR,,0.02,WeatherDisplay:10.37,2013-01-13 04:04:00,
2013-01-12 23:10:00,38.2,35.2,30.16,WSW,241,1.0,5.0,89,0.00,CLR,,0.02,WeatherDisplay:10.37,2013-01-13 04:10:00,
2013-01-12 23:20:00,38.1,35.2,30.15,WSW,242,0.0,2.0,89,0.00,CLR,,0.02,WeatherDisplay:10.37,2013-01-13 04:20:00,
2013-01-12 23:30:00,38.1,35.4,30.16,SW,215,0.0,0.0,90,0.00,CLR,,0.02,WeatherDisplay:10.37,2013-01-13 04:30:00,
2013-01-12 23:40:00,38.1,35.4,30.16,WSW,253,0.0,0.0,90,0.00,CLR,,0.02,WeatherDisplay:10.37,2013-01-13 04:40:00,
2013-01-12 23:50:00,38.1,35.4,30.16,West,270,0.0,0.0,90,0.00,CLR,,0.02,WeatherDisplay:10.37,2013-01-13 04:50:00,
2013-01-12 23:59:00,37.9,35.3,30.16,WSW,239,0.0,0.0,90,0.00,RA,,0.00,WeatherDisplay:10.37,2013-01-13 04:59:00,